sensor_id;sensor_type;location;lat;lon;timestamp;P1;durP1;ratioP1;P2;durP2;ratioP2
18286;SDS011;9269;50.838;12.094;2023-07-08T00:02:18;5.83;;;5.20;;
18286;SDS011;9269;50.838;12.094;2023-07-08T00:04:46;6.53;;;5.33;;
18286;SDS011;9269;50.838;12.094;2023-07-08T00:07:15;7.80;;;5.60;;
18286;SDS011;9269;50.838;12.094;2023-07-08T00:09:47;7.90;;;5.43;;
18286;SDS011;9269;50.838;12.094;2023-07-08T00:12:15;5.70;;;5.03;;
18286;SDS011;9269;50.838;12.094;2023-07-08T00:14:45;8.30;;;5.23;;
18286;SDS011;9269;50.838;12.094;2023-07-08T00:17:14;5.47;;;5.07;;
18286;SDS011;9269;50.838;12.094;2023-07-08T00:19:43;6.43;;;5.00;;
18286;SDS011;9269;50.838;12.094;2023-07-08T00:22:12;8.80;;;6.97;;
18286;SDS011;9269;50.838;12.094;2023-07-08T00:24:41;9.07;;;8.23;;
18286;SDS011;9269;50.838;12.094;2023-07-08T00:27:11;9.17;;;8.20;;
18286;SDS011;9269;50.838;12.094;2023-07-08T00:29:40;10.33;;;9.23;;
18286;SDS011;9269;50.838;12.094;2023-07-08T00:32:12;11.40;;;10.30;;
18286;SDS011;9269;50.838;12.094;2023-07-08T00:34:42;11.70;;;10.47;;
18286;SDS011;9269;50.838;12.094;2023-07-08T00:37:11;13.17;;;11.97;;
18286;SDS011;9269;50.838;12.094;2023-07-08T00:39:40;12.93;;;11.63;;
18286;SDS011;9269;50.838;12.094;2023-07-08T00:42:12;12.53;;;11.33;;
18286;SDS011;9269;50.838;12.094;2023-07-08T00:44:43;11.33;;;10.27;;
18286;SDS011;9269;50.838;12.094;2023-07-08T00:47:14;12.10;;;11.07;;
18286;SDS011;9269;50.838;12.094;2023-07-08T00:49:44;15.23;;;13.87;;
18286;SDS011;9269;50.838;12.094;2023-07-08T00:52:19;14.93;;;13.53;;
18286;SDS011;9269;50.838;12.094;2023-07-08T00:54:51;16.97;;;15.27;;
18286;SDS011;9269;50.838;12.094;2023-07-08T00:57:21;16.03;;;14.63;;
18286;SDS011;9269;50.838;12.094;2023-07-08T00:59:57;20.37;;;18.30;;
18286;SDS011;9269;50.838;12.094;2023-07-08T01:02:32;21.80;;;19.80;;
18286;SDS011;9269;50.838;12.094;2023-07-08T01:05:10;20.00;;;18.10;;
18286;SDS011;9269;50.838;12.094;2023-07-08T01:07:42;18.93;;;16.53;;
18286;SDS011;9269;50.838;12.094;2023-07-08T01:10:18;16.87;;;15.17;;
18286;SDS011;9269;50.838;12.094;2023-07-08T01:13:04;16.70;;;15.13;;
18286;SDS011;9269;50.838;12.094;2023-07-08T01:15:36;18.00;;;15.33;;
18286;SDS011;9269;50.838;12.094;2023-07-08T01:18:10;16.50;;;14.27;;
18286;SDS011;9269;50.838;12.094;2023-07-08T01:20:43;16.67;;;14.40;;
18286;SDS011;9269;50.838;12.094;2023-07-08T01:23:15;21.43;;;19.33;;
18286;SDS011;9269;50.838;12.094;2023-07-08T01:25:45;14.80;;;13.30;;
18286;SDS011;9269;50.838;12.094;2023-07-08T01:28:14;19.07;;;17.17;;
18286;SDS011;9269;50.838;12.094;2023-07-08T01:30:43;24.27;;;21.67;;
18286;SDS011;9269;50.838;12.094;2023-07-08T01:33:13;25.37;;;22.83;;
18286;SDS011;9269;50.838;12.094;2023-07-08T01:35:45;22.17;;;19.87;;
18286;SDS011;9269;50.838;12.094;2023-07-08T01:38:18;20.40;;;17.13;;
18286;SDS011;9269;50.838;12.094;2023-07-08T01:40:52;17.10;;;15.40;;
18286;SDS011;9269;50.838;12.094;2023-07-08T01:43:21;16.23;;;14.10;;
18286;SDS011;9269;50.838;12.094;2023-07-08T01:45:50;17.20;;;13.63;;
18286;SDS011;9269;50.838;12.094;2023-07-08T01:48:20;12.43;;;11.13;;
18286;SDS011;9269;50.838;12.094;2023-07-08T01:50:51;10.83;;;9.80;;
18286;SDS011;9269;50.838;12.094;2023-07-08T01:53:29;12.23;;;11.03;;
18286;SDS011;9269;50.838;12.094;2023-07-08T01:55:59;13.23;;;11.83;;
18286;SDS011;9269;50.838;12.094;2023-07-08T01:58:27;11.43;;;10.33;;
18286;SDS011;9269;50.838;12.094;2023-07-08T02:00:56;12.73;;;10.93;;
18286;SDS011;9269;50.838;12.094;2023-07-08T02:03:25;13.13;;;11.73;;
18286;SDS011;9269;50.838;12.094;2023-07-08T02:05:54;16.97;;;14.13;;
18286;SDS011;9269;50.838;12.094;2023-07-08T02:08:22;15.17;;;13.57;;
18286;SDS011;9269;50.838;12.094;2023-07-08T02:10:54;12.63;;;11.43;;
18286;SDS011;9269;50.838;12.094;2023-07-08T02:13:25;14.10;;;12.67;;
18286;SDS011;9269;50.838;12.094;2023-07-08T02:15:53;13.43;;;11.93;;
18286;SDS011;9269;50.838;12.094;2023-07-08T02:18:22;16.20;;;14.70;;
18286;SDS011;9269;50.838;12.094;2023-07-08T02:20:51;18.03;;;16.13;;
18286;SDS011;9269;50.838;12.094;2023-07-08T02:23:20;17.57;;;15.77;;
18286;SDS011;9269;50.838;12.094;2023-07-08T02:25:52;16.03;;;14.53;;
18286;SDS011;9269;50.838;12.094;2023-07-08T02:28:23;15.03;;;13.10;;
18286;SDS011;9269;50.838;12.094;2023-07-08T02:30:51;17.37;;;15.53;;
18286;SDS011;9269;50.838;12.094;2023-07-08T02:33:19;18.67;;;16.83;;
18286;SDS011;9269;50.838;12.094;2023-07-08T02:35:54;14.90;;;13.37;;
18286;SDS011;9269;50.838;12.094;2023-07-08T02:38:22;15.93;;;14.37;;
18286;SDS011;9269;50.838;12.094;2023-07-08T02:40:51;15.23;;;13.70;;
18286;SDS011;9269;50.838;12.094;2023-07-08T02:43:20;13.00;;;11.80;;
18286;SDS011;9269;50.838;12.094;2023-07-08T02:45:49;11.53;;;10.27;;
18286;SDS011;9269;50.838;12.094;2023-07-08T02:48:18;11.03;;;9.93;;
18286;SDS011;9269;50.838;12.094;2023-07-08T02:50:47;9.80;;;8.90;;
18286;SDS011;9269;50.838;12.094;2023-07-08T02:53:15;11.43;;;8.53;;
18286;SDS011;9269;50.838;12.094;2023-07-08T02:55:43;10.63;;;9.53;;
18286;SDS011;9269;50.838;12.094;2023-07-08T02:58:13;9.67;;;8.63;;
18286;SDS011;9269;50.838;12.094;2023-07-08T03:00:41;9.73;;;8.13;;
18286;SDS011;9269;50.838;12.094;2023-07-08T03:03:10;9.03;;;8.13;;
18286;SDS011;9269;50.838;12.094;2023-07-08T03:05:38;8.87;;;7.97;;
18286;SDS011;9269;50.838;12.094;2023-07-08T03:08:07;9.47;;;8.57;;
18286;SDS011;9269;50.838;12.094;2023-07-08T03:10:35;9.43;;;8.53;;
18286;SDS011;9269;50.838;12.094;2023-07-08T03:13:03;8.77;;;7.87;;
18286;SDS011;9269;50.838;12.094;2023-07-08T03:15:33;8.63;;;7.80;;
18286;SDS011;9269;50.838;12.094;2023-07-08T03:18:02;8.07;;;7.27;;
18286;SDS011;9269;50.838;12.094;2023-07-08T03:20:32;8.07;;;7.37;;
18286;SDS011;9269;50.838;12.094;2023-07-08T03:23:00;8.60;;;7.83;;
18286;SDS011;9269;50.838;12.094;2023-07-08T03:25:29;9.17;;;8.37;;
18286;SDS011;9269;50.838;12.094;2023-07-08T03:27:57;8.53;;;7.63;;
18286;SDS011;9269;50.838;12.094;2023-07-08T03:30:26;11.17;;;9.67;;
18286;SDS011;9269;50.838;12.094;2023-07-08T03:32:56;12.10;;;10.63;;
18286;SDS011;9269;50.838;12.094;2023-07-08T03:35:24;15.07;;;11.93;;
18286;SDS011;9269;50.838;12.094;2023-07-08T03:37:53;11.70;;;10.07;;
18286;SDS011;9269;50.838;12.094;2023-07-08T03:40:21;13.93;;;10.63;;
18286;SDS011;9269;50.838;12.094;2023-07-08T03:42:50;12.40;;;10.83;;
18286;SDS011;9269;50.838;12.094;2023-07-08T03:45:18;11.60;;;10.43;;
18286;SDS011;9269;50.838;12.094;2023-07-08T03:47:46;12.10;;;11.00;;
18286;SDS011;9269;50.838;12.094;2023-07-08T03:50:17;10.13;;;9.13;;
18286;SDS011;9269;50.838;12.094;2023-07-08T03:52:47;10.70;;;9.70;;
18286;SDS011;9269;50.838;12.094;2023-07-08T03:55:17;9.43;;;8.53;;
18286;SDS011;9269;50.838;12.094;2023-07-08T03:57:46;9.47;;;8.57;;
18286;SDS011;9269;50.838;12.094;2023-07-08T04:00:15;9.30;;;8.27;;
18286;SDS011;9269;50.838;12.094;2023-07-08T04:02:44;8.90;;;8.00;;
18286;SDS011;9269;50.838;12.094;2023-07-08T04:05:13;7.77;;;7.07;;
18286;SDS011;9269;50.838;12.094;2023-07-08T04:07:44;9.33;;;8.47;;
18286;SDS011;9269;50.838;12.094;2023-07-08T04:10:13;9.13;;;8.33;;
18286;SDS011;9269;50.838;12.094;2023-07-08T04:12:42;9.43;;;8.57;;
18286;SDS011;9269;50.838;12.094;2023-07-08T04:15:11;9.20;;;8.40;;
18286;SDS011;9269;50.838;12.094;2023-07-08T04:17:41;8.33;;;7.63;;
18286;SDS011;9269;50.838;12.094;2023-07-08T04:20:13;9.73;;;7.57;;
18286;SDS011;9269;50.838;12.094;2023-07-08T04:22:44;8.33;;;7.63;;
18286;SDS011;9269;50.838;12.094;2023-07-08T04:25:13;9.10;;;8.27;;
18286;SDS011;9269;50.838;12.094;2023-07-08T04:27:41;7.80;;;7.00;;
18286;SDS011;9269;50.838;12.094;2023-07-08T04:30:13;8.43;;;7.50;;
18286;SDS011;9269;50.838;12.094;2023-07-08T04:32:49;9.87;;;8.87;;
18286;SDS011;9269;50.838;12.094;2023-07-08T04:35:18;8.90;;;8.10;;
18286;SDS011;9269;50.838;12.094;2023-07-08T04:37:47;8.97;;;8.17;;
18286;SDS011;9269;50.838;12.094;2023-07-08T04:40:17;11.33;;;10.20;;
18286;SDS011;9269;50.838;12.094;2023-07-08T04:42:48;15.70;;;14.20;;
18286;SDS011;9269;50.838;12.094;2023-07-08T04:45:18;20.53;;;18.70;;
18286;SDS011;9269;50.838;12.094;2023-07-08T04:47:47;21.07;;;19.13;;
18286;SDS011;9269;50.838;12.094;2023-07-08T04:50:19;23.03;;;20.93;;
18286;SDS011;9269;50.838;12.094;2023-07-08T04:52:49;23.97;;;21.97;;
18286;SDS011;9269;50.838;12.094;2023-07-08T04:55:18;20.57;;;18.83;;
18286;SDS011;9269;50.838;12.094;2023-07-08T04:57:47;17.00;;;15.63;;
18286;SDS011;9269;50.838;12.094;2023-07-08T05:00:16;13.77;;;12.57;;
18286;SDS011;9269;50.838;12.094;2023-07-08T05:02:46;12.53;;;11.43;;
18286;SDS011;9269;50.838;12.094;2023-07-08T05:05:16;11.97;;;10.93;;
18286;SDS011;9269;50.838;12.094;2023-07-08T05:07:45;10.73;;;9.83;;
18286;SDS011;9269;50.838;12.094;2023-07-08T05:10:17;9.80;;;8.90;;
18286;SDS011;9269;50.838;12.094;2023-07-08T05:12:47;9.20;;;8.27;;
18286;SDS011;9269;50.838;12.094;2023-07-08T05:15:15;8.20;;;7.43;;
18286;SDS011;9269;50.838;12.094;2023-07-08T05:17:43;8.00;;;7.30;;
18286;SDS011;9269;50.838;12.094;2023-07-08T05:20:13;8.37;;;7.33;;
18286;SDS011;9269;50.838;12.094;2023-07-08T05:22:43;7.90;;;7.10;;
18286;SDS011;9269;50.838;12.094;2023-07-08T05:25:11;8.33;;;6.90;;
18286;SDS011;9269;50.838;12.094;2023-07-08T05:27:42;7.00;;;6.27;;
18286;SDS011;9269;50.838;12.094;2023-07-08T05:30:11;6.83;;;6.23;;
18286;SDS011;9269;50.838;12.094;2023-07-08T05:32:43;7.37;;;6.70;;
18286;SDS011;9269;50.838;12.094;2023-07-08T05:35:12;6.33;;;5.83;;
18286;SDS011;9269;50.838;12.094;2023-07-08T05:37:40;6.97;;;5.93;;
18286;SDS011;9269;50.838;12.094;2023-07-08T05:40:13;5.87;;;5.37;;
18286;SDS011;9269;50.838;12.094;2023-07-08T05:42:44;6.07;;;5.47;;
18286;SDS011;9269;50.838;12.094;2023-07-08T05:45:12;5.73;;;5.27;;
18286;SDS011;9269;50.838;12.094;2023-07-08T05:47:40;6.23;;;5.73;;
18286;SDS011;9269;50.838;12.094;2023-07-08T05:50:09;5.87;;;5.37;;
18286;SDS011;9269;50.838;12.094;2023-07-08T05:52:37;6.50;;;5.70;;
18286;SDS011;9269;50.838;12.094;2023-07-08T05:55:06;5.70;;;5.20;;
18286;SDS011;9269;50.838;12.094;2023-07-08T05:57:36;5.57;;;5.07;;
18286;SDS011;9269;50.838;12.094;2023-07-08T06:00:07;5.83;;;5.33;;
18286;SDS011;9269;50.838;12.094;2023-07-08T06:02:37;5.73;;;5.23;;
18286;SDS011;9269;50.838;12.094;2023-07-08T06:05:06;6.03;;;5.53;;
18286;SDS011;9269;50.838;12.094;2023-07-08T06:07:35;4.90;;;4.50;;
18286;SDS011;9269;50.838;12.094;2023-07-08T06:10:04;5.30;;;4.83;;
18286;SDS011;9269;50.838;12.094;2023-07-08T06:12:33;5.00;;;4.60;;
18286;SDS011;9269;50.838;12.094;2023-07-08T06:15:02;5.27;;;4.60;;
18286;SDS011;9269;50.838;12.094;2023-07-08T06:17:32;5.40;;;4.90;;
18286;SDS011;9269;50.838;12.094;2023-07-08T06:20:00;4.97;;;4.47;;
18286;SDS011;9269;50.838;12.094;2023-07-08T06:22:29;5.20;;;4.80;;
18286;SDS011;9269;50.838;12.094;2023-07-08T06:25:13;5.57;;;4.97;;
18286;SDS011;9269;50.838;12.094;2023-07-08T06:27:41;5.57;;;5.03;;
18286;SDS011;9269;50.838;12.094;2023-07-08T06:30:10;6.10;;;5.27;;
18286;SDS011;9269;50.838;12.094;2023-07-08T06:32:40;6.33;;;5.40;;
18286;SDS011;9269;50.838;12.094;2023-07-08T06:35:09;6.67;;;5.13;;
18286;SDS011;9269;50.838;12.094;2023-07-08T06:37:37;5.30;;;4.90;;
18286;SDS011;9269;50.838;12.094;2023-07-08T06:40:06;6.40;;;5.03;;
18286;SDS011;9269;50.838;12.094;2023-07-08T06:42:35;4.60;;;4.20;;
18286;SDS011;9269;50.838;12.094;2023-07-08T06:45:03;5.40;;;4.90;;
18286;SDS011;9269;50.838;12.094;2023-07-08T06:47:32;5.47;;;4.97;;
18286;SDS011;9269;50.838;12.094;2023-07-08T06:50:02;5.27;;;4.57;;
18286;SDS011;9269;50.838;12.094;2023-07-08T06:52:35;5.10;;;4.70;;
18286;SDS011;9269;50.838;12.094;2023-07-08T06:55:07;5.47;;;4.97;;
18286;SDS011;9269;50.838;12.094;2023-07-08T06:57:37;4.93;;;4.53;;
18286;SDS011;9269;50.838;12.094;2023-07-08T07:00:06;4.30;;;3.90;;
18286;SDS011;9269;50.838;12.094;2023-07-08T07:02:36;5.03;;;4.53;;
18286;SDS011;9269;50.838;12.094;2023-07-08T07:05:07;5.00;;;4.50;;
18286;SDS011;9269;50.838;12.094;2023-07-08T07:07:35;6.10;;;5.50;;
18286;SDS011;9269;50.838;12.094;2023-07-08T07:10:04;5.63;;;4.40;;
18286;SDS011;9269;50.838;12.094;2023-07-08T07:12:35;5.20;;;4.33;;
18286;SDS011;9269;50.838;12.094;2023-07-08T07:15:04;4.90;;;4.40;;
18286;SDS011;9269;50.838;12.094;2023-07-08T07:17:33;5.03;;;4.37;;
18286;SDS011;9269;50.838;12.094;2023-07-08T07:20:02;4.77;;;4.37;;
18286;SDS011;9269;50.838;12.094;2023-07-08T07:22:33;4.93;;;4.47;;
18286;SDS011;9269;50.838;12.094;2023-07-08T07:25:02;6.50;;;5.17;;
18286;SDS011;9269;50.838;12.094;2023-07-08T07:27:31;5.23;;;4.83;;
18286;SDS011;9269;50.838;12.094;2023-07-08T07:29:59;4.80;;;4.40;;
18286;SDS011;9269;50.838;12.094;2023-07-08T07:32:28;5.40;;;4.57;;
18286;SDS011;9269;50.838;12.094;2023-07-08T07:34:59;4.90;;;4.40;;
18286;SDS011;9269;50.838;12.094;2023-07-08T07:37:28;5.03;;;4.53;;
18286;SDS011;9269;50.838;12.094;2023-07-08T07:39:58;5.30;;;4.90;;
18286;SDS011;9269;50.838;12.094;2023-07-08T07:42:27;4.97;;;4.60;;
18286;SDS011;9269;50.838;12.094;2023-07-08T07:44:55;5.47;;;4.97;;
18286;SDS011;9269;50.838;12.094;2023-07-08T07:47:24;5.60;;;4.77;;
18286;SDS011;9269;50.838;12.094;2023-07-08T07:49:57;4.63;;;4.23;;
18286;SDS011;9269;50.838;12.094;2023-07-08T07:52:26;4.83;;;4.33;;
18286;SDS011;9269;50.838;12.094;2023-07-08T07:54:54;5.43;;;4.93;;
18286;SDS011;9269;50.838;12.094;2023-07-08T07:57:24;4.97;;;4.57;;
18286;SDS011;9269;50.838;12.094;2023-07-08T07:59:53;5.67;;;4.67;;
18286;SDS011;9269;50.838;12.094;2023-07-08T08:02:21;5.07;;;4.53;;
18286;SDS011;9269;50.838;12.094;2023-07-08T08:04:50;4.93;;;4.50;;
18286;SDS011;9269;50.838;12.094;2023-07-08T08:07:23;5.00;;;4.60;;
18286;SDS011;9269;50.838;12.094;2023-07-08T08:09:55;5.07;;;4.60;;
18286;SDS011;9269;50.838;12.094;2023-07-08T08:12:26;5.90;;;5.23;;
18286;SDS011;9269;50.838;12.094;2023-07-08T08:15:07;6.50;;;4.77;;
18286;SDS011;9269;50.838;12.094;2023-07-08T08:17:36;5.10;;;4.53;;
18286;SDS011;9269;50.838;12.094;2023-07-08T08:20:06;5.37;;;4.93;;
18286;SDS011;9269;50.838;12.094;2023-07-08T08:22:35;5.50;;;5.00;;
18286;SDS011;9269;50.838;12.094;2023-07-08T08:25:05;4.90;;;4.50;;
18286;SDS011;9269;50.838;12.094;2023-07-08T08:27:37;5.17;;;4.73;;
18286;SDS011;9269;50.838;12.094;2023-07-08T08:30:07;5.10;;;4.70;;
18286;SDS011;9269;50.838;12.094;2023-07-08T08:32:38;6.73;;;4.90;;
18286;SDS011;9269;50.838;12.094;2023-07-08T08:35:07;5.40;;;4.97;;
18286;SDS011;9269;50.838;12.094;2023-07-08T08:37:36;4.90;;;4.50;;
18286;SDS011;9269;50.838;12.094;2023-07-08T08:40:04;5.40;;;4.90;;
18286;SDS011;9269;50.838;12.094;2023-07-08T08:42:38;5.73;;;4.90;;
18286;SDS011;9269;50.838;12.094;2023-07-08T08:45:11;5.20;;;4.73;;
18286;SDS011;9269;50.838;12.094;2023-07-08T08:47:48;5.40;;;4.90;;
18286;SDS011;9269;50.838;12.094;2023-07-08T08:50:25;5.60;;;5.10;;
18286;SDS011;9269;50.838;12.094;2023-07-08T08:52:58;5.10;;;4.67;;
18286;SDS011;9269;50.838;12.094;2023-07-08T08:55:28;5.00;;;4.60;;
18286;SDS011;9269;50.838;12.094;2023-07-08T08:58:02;5.23;;;4.83;;
18286;SDS011;9269;50.838;12.094;2023-07-08T09:00:52;5.77;;;5.07;;
18286;SDS011;9269;50.838;12.094;2023-07-08T09:06:11;5.77;;;5.27;;
18286;SDS011;9269;50.838;12.094;2023-07-08T09:08:42;6.00;;;5.00;;
18286;SDS011;9269;50.838;12.094;2023-07-08T09:11:15;5.77;;;5.17;;
18286;SDS011;9269;50.838;12.094;2023-07-08T09:13:52;6.30;;;5.20;;
18286;SDS011;9269;50.838;12.094;2023-07-08T09:16:25;5.13;;;4.63;;
18286;SDS011;9269;50.838;12.094;2023-07-08T09:19:04;5.60;;;5.10;;
18286;SDS011;9269;50.838;12.094;2023-07-08T09:21:37;5.40;;;5.00;;
18286;SDS011;9269;50.838;12.094;2023-07-08T09:24:14;5.23;;;4.73;;
18286;SDS011;9269;50.838;12.094;2023-07-08T09:26:46;4.57;;;4.17;;
18286;SDS011;9269;50.838;12.094;2023-07-08T09:29:20;5.50;;;5.10;;
18286;SDS011;9269;50.838;12.094;2023-07-08T09:31:50;5.83;;;4.93;;
18286;SDS011;9269;50.838;12.094;2023-07-08T09:34:22;5.17;;;4.77;;
18286;SDS011;9269;50.838;12.094;2023-07-08T09:36:51;5.20;;;4.80;;
18286;SDS011;9269;50.838;12.094;2023-07-08T09:39:20;5.70;;;5.17;;
18286;SDS011;9269;50.838;12.094;2023-07-08T09:41:48;5.53;;;4.93;;
18286;SDS011;9269;50.838;12.094;2023-07-08T09:44:21;5.40;;;4.90;;
18286;SDS011;9269;50.838;12.094;2023-07-08T09:46:53;7.10;;;4.90;;
18286;SDS011;9269;50.838;12.094;2023-07-08T09:49:23;6.13;;;5.33;;
18286;SDS011;9269;50.838;12.094;2023-07-08T09:51:55;5.80;;;5.30;;
18286;SDS011;9269;50.838;12.094;2023-07-08T09:54:24;6.97;;;4.87;;
18286;SDS011;9269;50.838;12.094;2023-07-08T09:56:58;4.77;;;4.37;;
18286;SDS011;9269;50.838;12.094;2023-07-08T09:59:32;5.27;;;4.80;;
18286;SDS011;9269;50.838;12.094;2023-07-08T10:02:20;5.50;;;5.00;;
18286;SDS011;9269;50.838;12.094;2023-07-08T10:04:56;4.63;;;4.33;;
18286;SDS011;9269;50.838;12.094;2023-07-08T10:07:28;4.97;;;4.57;;
18286;SDS011;9269;50.838;12.094;2023-07-08T10:09:59;5.13;;;4.73;;
18286;SDS011;9269;50.838;12.094;2023-07-08T10:12:30;4.97;;;4.57;;
18286;SDS011;9269;50.838;12.094;2023-07-08T10:15:03;4.77;;;4.37;;
18286;SDS011;9269;50.838;12.094;2023-07-08T10:17:40;4.60;;;4.20;;
18286;SDS011;9269;50.838;12.094;2023-07-08T10:22:41;4.60;;;4.20;;
18286;SDS011;9269;50.838;12.094;2023-07-08T10:25:16;5.37;;;4.40;;
18286;SDS011;9269;50.838;12.094;2023-07-08T10:27:56;4.60;;;4.27;;
18286;SDS011;9269;50.838;12.094;2023-07-08T10:30:32;4.50;;;4.10;;
18286;SDS011;9269;50.838;12.094;2023-07-08T10:36:10;4.63;;;4.23;;
18286;SDS011;9269;50.838;12.094;2023-07-08T10:38:49;4.90;;;4.40;;
18286;SDS011;9269;50.838;12.094;2023-07-08T10:41:34;5.03;;;4.53;;
18286;SDS011;9269;50.838;12.094;2023-07-08T10:44:12;5.20;;;4.70;;
18286;SDS011;9269;50.838;12.094;2023-07-08T10:46:49;5.10;;;4.57;;
18286;SDS011;9269;50.838;12.094;2023-07-08T10:49:26;5.80;;;4.13;;
18286;SDS011;9269;50.838;12.094;2023-07-08T10:52:06;4.30;;;4.00;;
18286;SDS011;9269;50.838;12.094;2023-07-08T10:54:50;4.50;;;4.20;;
18286;SDS011;9269;50.838;12.094;2023-07-08T10:57:36;4.50;;;4.10;;
18286;SDS011;9269;50.838;12.094;2023-07-08T11:00:16;4.57;;;4.17;;
18286;SDS011;9269;50.838;12.094;2023-07-08T11:03:02;4.43;;;4.03;;
18286;SDS011;9269;50.838;12.094;2023-07-08T11:05:43;4.40;;;4.03;;
18286;SDS011;9269;50.838;12.094;2023-07-08T11:08:14;4.80;;;4.40;;
18286;SDS011;9269;50.838;12.094;2023-07-08T11:10:50;4.10;;;3.80;;
18286;SDS011;9269;50.838;12.094;2023-07-08T11:13:42;6.23;;;4.07;;
18286;SDS011;9269;50.838;12.094;2023-07-08T11:16:19;4.20;;;3.90;;
18286;SDS011;9269;50.838;12.094;2023-07-08T11:18:52;4.80;;;4.30;;
18286;SDS011;9269;50.838;12.094;2023-07-08T11:21:26;4.03;;;3.73;;
18286;SDS011;9269;50.838;12.094;2023-07-08T11:24:00;4.70;;;4.30;;
18286;SDS011;9269;50.838;12.094;2023-07-08T11:26:33;4.47;;;4.17;;
18286;SDS011;9269;50.838;12.094;2023-07-08T11:29:10;4.63;;;4.23;;
18286;SDS011;9269;50.838;12.094;2023-07-08T11:31:44;5.30;;;4.80;;
18286;SDS011;9269;50.838;12.094;2023-07-08T11:34:16;4.70;;;4.30;;
18286;SDS011;9269;50.838;12.094;2023-07-08T11:36:46;4.80;;;4.40;;
18286;SDS011;9269;50.838;12.094;2023-07-08T11:39:27;4.53;;;4.17;;
18286;SDS011;9269;50.838;12.094;2023-07-08T11:42:10;5.83;;;4.53;;
18286;SDS011;9269;50.838;12.094;2023-07-08T11:44:47;5.23;;;4.73;;
18286;SDS011;9269;50.838;12.094;2023-07-08T11:47:21;6.07;;;4.77;;
18286;SDS011;9269;50.838;12.094;2023-07-08T11:49:55;4.87;;;4.37;;
18286;SDS011;9269;50.838;12.094;2023-07-08T11:52:24;5.23;;;4.30;;
18286;SDS011;9269;50.838;12.094;2023-07-08T11:54:56;5.30;;;4.80;;
18286;SDS011;9269;50.838;12.094;2023-07-08T11:57:30;4.63;;;4.30;;
18286;SDS011;9269;50.838;12.094;2023-07-08T12:00:13;4.77;;;4.10;;
18286;SDS011;9269;50.838;12.094;2023-07-08T12:02:49;4.57;;;4.17;;
18286;SDS011;9269;50.838;12.094;2023-07-08T12:05:32;4.73;;;4.27;;
18286;SDS011;9269;50.838;12.094;2023-07-08T12:08:03;4.82;;;4.43;;
18286;SDS011;9269;50.838;12.094;2023-07-08T12:10:41;4.93;;;4.53;;
18286;SDS011;9269;50.838;12.094;2023-07-08T12:13:17;5.57;;;4.90;;
18286;SDS011;9269;50.838;12.094;2023-07-08T12:15:48;4.50;;;4.10;;
18286;SDS011;9269;50.838;12.094;2023-07-08T12:18:25;4.83;;;4.43;;
18286;SDS011;9269;50.838;12.094;2023-07-08T12:21:01;4.95;;;4.55;;
18286;SDS011;9269;50.838;12.094;2023-07-08T12:23:30;6.33;;;4.57;;
18286;SDS011;9269;50.838;12.094;2023-07-08T12:26:14;4.80;;;4.40;;
18286;SDS011;9269;50.838;12.094;2023-07-08T12:28:44;4.70;;;4.30;;
18286;SDS011;9269;50.838;12.094;2023-07-08T12:31:13;5.10;;;4.60;;
18286;SDS011;9269;50.838;12.094;2023-07-08T12:33:47;4.77;;;4.43;;
18286;SDS011;9269;50.838;12.094;2023-07-08T12:36:20;5.20;;;4.80;;
18286;SDS011;9269;50.838;12.094;2023-07-08T12:38:52;5.33;;;4.87;;
18286;SDS011;9269;50.838;12.094;2023-07-08T12:41:23;4.50;;;4.10;;
18286;SDS011;9269;50.838;12.094;2023-07-08T12:43:53;4.83;;;4.43;;
18286;SDS011;9269;50.838;12.094;2023-07-08T12:46:22;4.83;;;4.43;;
18286;SDS011;9269;50.838;12.094;2023-07-08T12:48:52;4.83;;;4.53;;
18286;SDS011;9269;50.838;12.094;2023-07-08T12:51:23;5.23;;;4.80;;
18286;SDS011;9269;50.838;12.094;2023-07-08T12:53:53;4.90;;;4.50;;
18286;SDS011;9269;50.838;12.094;2023-07-08T12:56:22;4.80;;;4.43;;
18286;SDS011;9269;50.838;12.094;2023-07-08T12:58:52;4.53;;;4.23;;
18286;SDS011;9269;50.838;12.094;2023-07-08T13:01:25;4.83;;;4.40;;
18286;SDS011;9269;50.838;12.094;2023-07-08T13:03:56;4.97;;;4.57;;
18286;SDS011;9269;50.838;12.094;2023-07-08T13:06:31;5.13;;;4.73;;
18286;SDS011;9269;50.838;12.094;2023-07-08T13:09:05;5.43;;;4.80;;
18286;SDS011;9269;50.838;12.094;2023-07-08T13:11:37;5.53;;;5.13;;
18286;SDS011;9269;50.838;12.094;2023-07-08T13:14:05;5.77;;;4.90;;
18286;SDS011;9269;50.838;12.094;2023-07-08T13:16:35;5.37;;;4.97;;
18286;SDS011;9269;50.838;12.094;2023-07-08T13:19:04;5.63;;;5.23;;
18286;SDS011;9269;50.838;12.094;2023-07-08T13:21:34;6.20;;;5.60;;
18286;SDS011;9269;50.838;12.094;2023-07-08T13:24:06;5.53;;;5.03;;
18286;SDS011;9269;50.838;12.094;2023-07-08T13:26:35;5.33;;;4.83;;
18286;SDS011;9269;50.838;12.094;2023-07-08T13:29:04;5.20;;;4.70;;
18286;SDS011;9269;50.838;12.094;2023-07-08T13:31:39;5.53;;;4.50;;
18286;SDS011;9269;50.838;12.094;2023-07-08T13:34:09;5.00;;;4.60;;
18286;SDS011;9269;50.838;12.094;2023-07-08T13:36:45;5.00;;;4.50;;
18286;SDS011;9269;50.838;12.094;2023-07-08T13:39:19;4.70;;;4.30;;
18286;SDS011;9269;50.838;12.094;2023-07-08T13:41:51;4.77;;;4.37;;
18286;SDS011;9269;50.838;12.094;2023-07-08T13:44:20;4.93;;;4.53;;
18286;SDS011;9269;50.838;12.094;2023-07-08T13:46:51;5.07;;;4.67;;
18286;SDS011;9269;50.838;12.094;2023-07-08T13:49:23;5.70;;;5.20;;
18286;SDS011;9269;50.838;12.094;2023-07-08T13:52:05;5.33;;;4.83;;
18286;SDS011;9269;50.838;12.094;2023-07-08T13:54:38;5.13;;;4.60;;
18286;SDS011;9269;50.838;12.094;2023-07-08T13:57:10;4.70;;;4.33;;
18286;SDS011;9269;50.838;12.094;2023-07-08T13:59:39;4.83;;;4.40;;
18286;SDS011;9269;50.838;12.094;2023-07-08T14:02:13;5.20;;;4.70;;
18286;SDS011;9269;50.838;12.094;2023-07-08T14:04:43;4.70;;;4.30;;
18286;SDS011;9269;50.838;12.094;2023-07-08T14:07:15;4.83;;;4.43;;
18286;SDS011;9269;50.838;12.094;2023-07-08T14:09:45;5.03;;;4.63;;
18286;SDS011;9269;50.838;12.094;2023-07-08T14:12:14;4.80;;;4.40;;
18286;SDS011;9269;50.838;12.094;2023-07-08T14:14:42;5.23;;;4.73;;
18286;SDS011;9269;50.838;12.094;2023-07-08T14:17:12;5.10;;;4.70;;
18286;SDS011;9269;50.838;12.094;2023-07-08T14:19:43;5.23;;;4.80;;
18286;SDS011;9269;50.838;12.094;2023-07-08T14:22:19;5.33;;;4.60;;
18286;SDS011;9269;50.838;12.094;2023-07-08T14:24:50;6.07;;;5.57;;
18286;SDS011;9269;50.838;12.094;2023-07-08T14:27:19;4.87;;;4.47;;
18286;SDS011;9269;50.838;12.094;2023-07-08T14:29:48;5.20;;;4.80;;
18286;SDS011;9269;50.838;12.094;2023-07-08T14:32:19;5.30;;;4.80;;
18286;SDS011;9269;50.838;12.094;2023-07-08T14:34:51;5.47;;;4.97;;
18286;SDS011;9269;50.838;12.094;2023-07-08T14:37:22;5.30;;;4.90;;
18286;SDS011;9269;50.838;12.094;2023-07-08T14:39:51;4.93;;;4.53;;
18286;SDS011;9269;50.838;12.094;2023-07-08T14:42:19;5.20;;;4.67;;
18286;SDS011;9269;50.838;12.094;2023-07-08T14:44:48;5.63;;;4.83;;
18286;SDS011;9269;50.838;12.094;2023-07-08T14:47:19;5.00;;;4.50;;
18286;SDS011;9269;50.838;12.094;2023-07-08T14:49:48;5.27;;;4.77;;
18286;SDS011;9269;50.838;12.094;2023-07-08T14:52:17;7.23;;;4.70;;
18286;SDS011;9269;50.838;12.094;2023-07-08T14:54:46;5.13;;;4.73;;
18286;SDS011;9269;50.838;12.094;2023-07-08T14:57:15;4.80;;;4.40;;
18286;SDS011;9269;50.838;12.094;2023-07-08T14:59:44;5.70;;;5.30;;
18286;SDS011;9269;50.838;12.094;2023-07-08T15:02:17;5.43;;;4.93;;
18286;SDS011;9269;50.838;12.094;2023-07-08T15:04:48;5.37;;;4.60;;
18286;SDS011;9269;50.838;12.094;2023-07-08T15:07:20;5.00;;;4.50;;
18286;SDS011;9269;50.838;12.094;2023-07-08T15:09:50;5.00;;;4.60;;
18286;SDS011;9269;50.838;12.094;2023-07-08T15:12:18;5.27;;;4.77;;
18286;SDS011;9269;50.838;12.094;2023-07-08T15:14:46;5.33;;;4.83;;
18286;SDS011;9269;50.838;12.094;2023-07-08T15:17:15;4.80;;;4.40;;